• Join FlightAware (Why Join?)
  • Login
  • US Flag 
11:14PM EDT


 

Airport Tracker/Info


-or-


 

Live Flight TrackerFlight Track Log ✈ FLG3709 ✈ 21-Apr-2013 ✈ KPIT - KCVG

Flight Track Log - Related Links

Times and Time Zones

All times are in EDT time to prevent confusion due to time zone crossing. See the FLG3709 flight status page for this flight to view local times or setup timezone preferences in your user account.

Time Position Orientation Groundspeed Altitude Reporting Facility
EDT Latitude Longitude Course Direction KTS MPH feet Rate Location/Type
07:20AM 40.4964 -80.4467 265° West 222 255 8,000  Level Cleveland Center
07:21AM 40.4667 -80.5789 270° West  Level FlightAware Approximate
07:21AM 40.4903 -80.5367 265° West 242 278 10,900  Level Cleveland Center
07:22AM 40.4667 -80.7005 270° West  Level FlightAware Approximate
07:22AM 40.4842 -80.6378 265° West 258 297 13,400  Level Cleveland Center
07:23AM 40.4667 -80.8220 270° West  Level FlightAware Approximate
07:23AM 40.4778 -80.7386 265° West 279 321 16,000  Level Cleveland Center
07:24AM 40.4667 -80.9436 270° West  Level FlightAware Approximate
07:24AM 40.4714 -80.8450 266° West 290 334 18,300  Level Cleveland Center
07:25AM 40.4667 -81.0651 270° West  Level FlightAware Approximate
07:25AM 40.4689 -80.9489 268° West 290 334 19,800  Level Cleveland Center
07:26AM 40.4634 -81.1864 265° West  Level FlightAware Approximate
07:26AM 40.4706 -81.0553 271° West 290 334 21,500  Level Cleveland Center
07:27AM 40.4700 -81.1672 270° West 295 339 22,000 180 Climbing Cleveland Center
07:29AM 40.4664 -81.3378 268° West 301 346 22,000  Level Indianapolis Center
07:30AM 40.4658 -81.4475 270° West 298 343 22,000  Level Indianapolis Center
07:31AM 40.4650 -81.5564 269° West 295 339 22,000  Level Indianapolis Center
07:32AM 40.4642 -81.6672 269° West 299 344 22,000  Level Indianapolis Center
07:33AM 40.4628 -81.7769 269° West 298 343 22,000  Level Indianapolis Center
07:34AM 40.4606 -81.8878 269° West 301 346 22,000  Level Indianapolis Center
07:35AM 40.4600 -82.0011 270° West 306 352 22,000  Level Indianapolis Center
07:36AM 40.4578 -82.1122 269° West 302 348 22,000  Level Indianapolis Center
07:37AM 40.4069 -82.2025 234° Southwest 311 358 22,000  Level Indianapolis Center
07:38AM 40.3511 -82.2903 230° Southwest 310 357 22,000  Level Indianapolis Center
07:39AM 40.2925 -82.3756 228° Southwest 312 359 22,000 -240 Level Indianapolis Center
07:40AM 40.2342 -82.4669 230° Southwest 312 359 21,600 -780 Descending Indianapolis Center
07:41AM 40.1750 -82.5539 228° Southwest 314 361 20,500 -840 Descending Indianapolis Center
07:42AM 40.1281 -82.6481 237° Southwest 309 356 20,000 -300 Descending Indianapolis Center
07:43AM 40.0864 -82.7475 241° Southwest 309 356 20,000  Level Indianapolis Center
07:44AM 40.0450 -82.8456 241° Southwest 306 352 20,000  Level Indianapolis Center
07:45AM 40.0033 -82.9444 241° Southwest 307 353 20,000  Level Indianapolis Center
07:46AM 39.9628 -83.0428 242° Southwest 307 353 20,000  Level Indianapolis Center
07:47AM 39.9206 -83.1414 241° Southwest 308 354 20,000  Level Indianapolis Center
07:48AM 39.8781 -83.2408 241° Southwest 311 358 20,000  Level Indianapolis Center
07:49AM 39.8328 -83.3478 241° Southwest 329 379 20,000  Level Indianapolis Center
07:50AM 39.7853 -83.4608 241° Southwest 341 392 20,000 -540 Level Indianapolis Center
07:51AM 39.7369 -83.5733 241° Southwest 346 398 19,000 -1,140 Descending Indianapolis Center
07:52AM 39.6911 -83.6817 241° Southwest 340 391 17,700 -1,620 Descending Indianapolis Center
07:53AM 39.6450 -83.7881 241° Southwest 335 386 15,800 -1,920 Descending Indianapolis Center
07:54AM 39.5989 -83.8950 241° Southwest 337 388 13,800 -1,860 Descending Indianapolis Center
07:55AM 39.5414 -83.9822 229° Southwest 318 366 12,100 -1,380 Descending Indianapolis Center
07:56AM 39.4806 -84.0669 227° Southwest 320 368 11,000 -600 Descending Indianapolis Center
07:57AM 39.4247 -84.1531 230° Southwest 313 360 10,900 -660 Descending Indianapolis Center
07:58AM 39.3747 -84.2367 232° Southwest 297 342 9,700 -1,020 Descending Indianapolis Center
07:59AM 39.3389 -84.3233 242° Southwest 277 319 8,900 -1,080 Descending Indianapolis Center
08:01AM 39.3014 -84.4081 240° Southwest 272 313 7,600 -1,380 Descending Indianapolis Center
08:02AM 39.2644 -84.4933 241° Southwest 270 311 6,200 -1,140 Descending Indianapolis Center
08:03AM 39.2358 -84.5675 244° Southwest 243 280 5,300 -1,080 Descending Indianapolis Center
08:04AM 39.2119 -84.6192 239° Southwest 204 235 4,100 -1,440 Descending Indianapolis Center
08:04AM 39.1667 -84.6500 208° Southwest 189 217 2,900 -1,800 Descending Cincinnati TRACON